createdAt,value
2022-08-07T00:00:42.999Z,2.83
2022-08-07T00:03:17.129Z,2.43
2022-08-07T00:05:53.976Z,3.37
2022-08-07T00:08:29.543Z,2.27
2022-08-07T00:11:02.257Z,2.73
2022-08-07T00:13:37.324Z,1.97
2022-08-07T00:16:21.584Z,4.23
2022-08-07T00:19:01.533Z,2.30
2022-08-07T00:21:56.978Z,2.13
2022-08-07T00:24:37.886Z,2.03
2022-08-07T00:27:11.357Z,2.47
2022-08-07T00:29:45.482Z,2.13
2022-08-07T00:32:19.013Z,2.90
2022-08-07T00:35:02.842Z,3.90
2022-08-07T00:37:47.649Z,4.67
2022-08-07T00:40:40.129Z,5.37
2022-08-07T00:43:59.195Z,4.87
2022-08-07T00:46:05.200Z,3.93
2022-08-07T00:48:43.485Z,5.20
2022-08-07T00:51:16.465Z,4.37
2022-08-07T00:53:50.411Z,2.93
2022-08-07T00:56:30.406Z,3.10
2022-08-07T00:59:06.819Z,2.70
2022-08-07T01:01:44.166Z,2.40
2022-08-07T01:04:24.555Z,2.63
2022-08-07T01:07:01.648Z,2.63
2022-08-07T01:10:05.156Z,3.17
2022-08-07T01:12:36.820Z,2.60
2022-08-07T01:15:11.949Z,2.30
2022-08-07T01:17:48.723Z,2.73
2022-08-07T01:20:34.030Z,3.43
2022-08-07T01:23:18.438Z,4.00
2022-08-07T01:26:12.252Z,4.77
2022-08-07T01:28:50.555Z,2.73
2022-08-07T01:31:42.733Z,4.50
2022-08-07T01:34:30.077Z,7.97
2022-08-07T01:37:02.995Z,6.50
2022-08-07T01:39:41.201Z,5.77
2022-08-07T01:42:38.454Z,6.00
2022-08-07T01:45:18.312Z,8.00
2022-08-07T01:48:20.198Z,6.40
2022-08-07T01:50:51.396Z,7.53
2022-08-07T01:54:09.028Z,5.37
2022-08-07T01:56:30.786Z,5.10
2022-08-07T01:59:18.757Z,9.07
2022-08-07T02:02:04.316Z,7.87
2022-08-07T02:04:52.668Z,7.93
2022-08-07T02:07:36.235Z,12.93
2022-08-07T02:10:42.317Z,11.93
2022-08-07T02:13:14.286Z,12.20
2022-08-07T02:15:50.043Z,12.73
2022-08-07T02:18:29.950Z,9.80
2022-08-07T02:21:08.563Z,12.23
2022-08-07T02:23:52.695Z,10.60
2022-08-07T02:26:32.446Z,8.43
2022-08-07T02:29:14.678Z,11.80
2022-08-07T02:31:59.021Z,7.97
2022-08-07T02:34:32.252Z,11.13
2022-08-07T02:37:10.140Z,10.13
2022-08-07T02:40:02.167Z,9.57
2022-08-07T02:42:37.011Z,8.13
2022-08-07T02:45:57.517Z,9.03
2022-08-07T02:48:10.468Z,9.03
2022-08-07T02:50:53.014Z,8.63
2022-08-07T02:53:31.483Z,9.70
2022-08-07T02:56:21.890Z,5.40
2022-08-07T02:58:57.007Z,6.77
2022-08-07T03:01:36.583Z,6.53
2022-08-07T03:04:16.768Z,4.67
2022-08-07T03:06:56.142Z,7.40
2022-08-07T03:09:43.182Z,7.20
2022-08-07T03:12:22.266Z,8.07
2022-08-07T03:15:07.532Z,7.07
2022-08-07T03:17:53.487Z,9.83
2022-08-07T03:20:26.474Z,8.67
2022-08-07T03:23:03.885Z,9.20
2022-08-07T03:25:44.091Z,8.50
2022-08-07T03:28:37.387Z,9.37
2022-08-07T03:31:23.707Z,8.93
2022-08-07T03:34:01.756Z,9.47
2022-08-07T03:36:37.623Z,8.70
2022-08-07T03:39:15.211Z,8.50
2022-08-07T03:41:57.722Z,7.07
2022-08-07T03:44:34.784Z,8.80
2022-08-07T03:47:13.894Z,6.50
2022-08-07T03:49:52.014Z,11.47
2022-08-07T03:52:30.010Z,8.40
2022-08-07T03:55:06.740Z,10.27
2022-08-07T03:58:35.420Z,9.70
2022-08-07T04:00:35.617Z,7.63
2022-08-07T04:03:09.980Z,8.57
2022-08-07T04:05:45.500Z,6.00
2022-08-07T04:08:18.513Z,9.30
2022-08-07T04:12:24.943Z,7.20
2022-08-07T04:14:10.727Z,6.77
2022-08-07T04:16:58.801Z,6.90
2022-08-07T04:19:34.076Z,5.70
2022-08-07T04:22:29.044Z,5.53
2022-08-07T04:25:08.806Z,4.90
2022-08-07T04:27:59.326Z,5.13
2022-08-07T04:30:43.927Z,4.67
2022-08-07T04:33:26.722Z,4.20
2022-08-07T04:36:02.126Z,5.67
2022-08-07T04:38:38.589Z,3.93
2022-08-07T04:41:18.178Z,3.63
2022-08-07T04:44:11.836Z,3.40
2022-08-07T04:46:59.481Z,4.07
2022-08-07T04:50:03.830Z,3.10
2022-08-07T04:52:51.405Z,3.10
2022-08-07T04:58:24.119Z,3.60
2022-08-07T04:58:49.699Z,4.57
2022-08-07T05:01:33.220Z,6.00
2022-08-07T05:04:17.092Z,7.67
2022-08-07T05:07:09.719Z,4.80
2022-08-07T05:09:58.985Z,4.20
2022-08-07T05:12:51.344Z,5.57
2022-08-07T05:15:31.395Z,5.23
2022-08-07T05:18:09.289Z,4.20
2022-08-07T05:20:50.209Z,6.17
2022-08-07T05:23:30.891Z,3.97
2022-08-07T05:26:18.798Z,4.30
2022-08-07T05:29:04.568Z,4.97
2022-08-07T05:31:41.351Z,8.43
2022-08-07T05:34:27.715Z,4.73
2022-08-07T05:37:05.614Z,6.17
2022-08-07T05:40:13.567Z,4.10
2022-08-07T05:42:36.941Z,4.27
2022-08-07T05:45:26.401Z,3.53
2022-08-07T05:48:09.125Z,5.27
2022-08-07T05:50:43.929Z,5.27
2022-08-07T05:54:12.423Z,4.30
2022-08-07T05:56:13.189Z,4.43
2022-08-07T05:58:52.807Z,5.67
2022-08-07T06:01:34.880Z,3.67
2022-08-07T06:04:17.413Z,3.73
2022-08-07T06:06:56.801Z,3.37
2022-08-07T06:10:03.953Z,3.37
2022-08-07T06:12:37.925Z,3.57
2022-08-07T06:15:15.295Z,3.83
2022-08-07T06:17:54.917Z,3.00
2022-08-07T06:20:50.755Z,2.97
2022-08-07T06:23:46.228Z,3.60
2022-08-07T06:26:21.263Z,3.00
2022-08-07T06:28:54.308Z,3.33
2022-08-07T06:31:46.714Z,3.03
2022-08-07T06:34:29.566Z,2.93
2022-08-07T06:37:04.793Z,1.90
2022-08-07T06:40:12.855Z,3.63
2022-08-07T06:42:37.066Z,2.10
2022-08-07T06:45:18.127Z,2.70
2022-08-07T06:47:59.966Z,2.27
2022-08-07T06:50:36.022Z,2.50
2022-08-07T06:53:49.297Z,1.90
2022-08-07T06:56:15.554Z,3.80
2022-08-07T07:00:12.870Z,5.10
2022-08-07T07:01:50.614Z,2.67
2022-08-07T07:04:28.528Z,2.90
2022-08-07T07:07:58.313Z,2.50
2022-08-07T07:10:08.994Z,2.63
2022-08-07T07:12:53.752Z,4.90
2022-08-07T07:15:32.699Z,3.07
2022-08-07T07:18:13.030Z,2.80
2022-08-07T07:20:53.411Z,2.90
2022-08-07T07:24:08.527Z,2.73
2022-08-07T07:26:35.524Z,2.47
2022-08-07T07:29:55.756Z,2.57
2022-08-07T07:32:15.242Z,2.40
2022-08-07T07:34:50.706Z,2.33
2022-08-07T07:37:44.470Z,2.30
2022-08-07T07:40:26.231Z,3.07
2022-08-07T07:43:15.162Z,3.27
2022-08-07T07:46:38.457Z,2.07
2022-08-07T07:49:00.252Z,1.80
2022-08-07T07:51:57.602Z,2.33
2022-08-07T07:54:38.601Z,1.90
2022-08-07T07:57:44.053Z,2.80
2022-08-07T08:00:31.193Z,5.43
2022-08-07T08:04:09.697Z,1.87
2022-08-07T08:06:11.606Z,1.50
2022-08-07T08:08:48.262Z,2.97
2022-08-07T08:11:59.909Z,1.63
2022-08-07T08:14:24.557Z,1.60
2022-08-07T08:17:56.682Z,2.80
2022-08-07T08:20:17.470Z,1.67
2022-08-07T08:23:22.305Z,1.30
2022-08-07T08:26:22.449Z,0.80
2022-08-07T08:28:59.669Z,0.70
2022-08-07T08:31:59.206Z,1.17
2022-08-07T08:34:35.992Z,1.70
2022-08-07T08:38:00.379Z,1.43
2022-08-07T08:40:16.279Z,1.30
2022-08-07T08:42:59.628Z,0.50
2022-08-07T08:45:59.279Z,1.00
2022-08-07T08:48:44.570Z,1.33
2022-08-07T08:51:49.658Z,1.13
2022-08-07T08:54:34.653Z,0.97
2022-08-07T08:57:33.952Z,2.30
2022-08-07T09:00:12.001Z,1.13
2022-08-07T09:02:52.561Z,1.03
2022-08-07T09:05:39.036Z,1.50
2022-08-07T09:08:24.148Z,1.47
2022-08-07T09:11:50.591Z,1.20
2022-08-07T09:14:29.795Z,1.03
2022-08-07T09:17:10.302Z,1.00
2022-08-07T09:19:56.620Z,2.37
2022-08-07T09:24:32.556Z,2.00
2022-08-07T09:25:54.692Z,0.90
2022-08-07T09:30:03.757Z,0.80
2022-08-07T09:31:48.406Z,0.80
2022-08-07T09:34:27.315Z,2.47
2022-08-07T09:37:12.683Z,0.80
2022-08-07T09:40:04.814Z,2.17
2022-08-07T09:42:53.530Z,1.00
2022-08-07T09:47:25.997Z,1.10
2022-08-07T09:49:02.245Z,1.23
2022-08-07T09:52:10.428Z,1.17
2022-08-07T09:54:46.069Z,1.57
2022-08-07T09:57:59.782Z,0.80
2022-08-07T10:00:44.872Z,1.20
2022-08-07T10:04:03.820Z,0.70
2022-08-07T10:06:59.513Z,1.17
2022-08-07T10:10:03.589Z,0.73
2022-08-07T10:12:55.192Z,1.03
2022-08-07T10:15:50.915Z,0.73
2022-08-07T10:18:35.360Z,0.83
2022-08-07T10:22:12.313Z,1.93
2022-08-07T10:24:46.076Z,0.87
2022-08-07T10:27:45.986Z,3.07
2022-08-07T10:30:34.999Z,0.67
2022-08-07T10:34:04.907Z,1.70
2022-08-07T10:36:53.725Z,1.00
2022-08-07T10:39:42.157Z,1.80
2022-08-07T10:42:39.582Z,0.77
2022-08-07T10:45:57.166Z,0.87
2022-08-07T10:48:44.622Z,1.00
2022-08-07T10:51:39.079Z,1.43
2022-08-07T10:54:22.652Z,0.63
2022-08-07T10:57:16.446Z,1.20
2022-08-07T11:00:06.160Z,1.00
2022-08-07T11:02:57.587Z,1.77
2022-08-07T11:05:51.224Z,0.90
2022-08-07T11:08:39.046Z,1.60
2022-08-07T11:11:16.537Z,0.70
2022-08-07T11:14:43.717Z,0.70
2022-08-07T11:17:07.271Z,0.70
2022-08-07T11:19:51.224Z,1.47
2022-08-07T11:22:36.086Z,1.70
2022-08-07T11:25:25.212Z,0.80
2022-08-07T11:28:06.696Z,1.13
2022-08-07T11:30:54.325Z,1.03
2022-08-07T11:33:58.782Z,0.70
2022-08-07T11:36:47.559Z,0.73
2022-08-07T11:40:00.274Z,0.80
2022-08-07T11:42:50.579Z,1.13
2022-08-07T11:45:36.077Z,2.63
2022-08-07T11:48:46.678Z,1.50
2022-08-07T11:51:50.756Z,1.27
2022-08-07T11:54:54.905Z,1.13
2022-08-07T11:58:00.134Z,1.10
2022-08-07T12:00:48.869Z,0.70
2022-08-07T12:04:07.276Z,1.10
2022-08-07T12:07:00.728Z,1.03
2022-08-07T12:09:51.462Z,0.60
2022-08-07T12:12:36.797Z,0.60
2022-08-07T12:15:17.203Z,0.70
2022-08-07T12:18:22.281Z,0.83
2022-08-07T12:21:15.915Z,1.20
2022-08-07T12:24:07.465Z,1.80
2022-08-07T12:27:16.014Z,0.93
2022-08-07T12:30:00.465Z,0.90
2022-08-07T12:32:53.752Z,1.20
2022-08-07T12:35:36.990Z,1.03
2022-08-07T12:38:19.343Z,1.53
2022-08-07T12:41:06.043Z,1.20
2022-08-07T12:44:04.122Z,0.83
2022-08-07T12:47:01.437Z,0.90
2022-08-07T12:49:51.052Z,3.60
2022-08-07T12:52:39.108Z,0.83
2022-08-07T12:55:41.426Z,2.27
2022-08-07T12:58:19.915Z,2.07
2022-08-07T13:01:18.333Z,0.93
2022-08-07T13:04:34.548Z,1.00
2022-08-07T13:08:14.077Z,1.13
2022-08-07T13:10:51.763Z,0.73
2022-08-07T13:13:50.317Z,0.93
2022-08-07T13:16:42.043Z,0.40
2022-08-07T13:19:46.194Z,1.53
2022-08-07T13:22:33.776Z,1.30
2022-08-07T13:25:29.111Z,1.77
2022-08-07T13:28:18.404Z,2.33
2022-08-07T13:31:13.202Z,1.00
2022-08-07T13:34:31.621Z,0.67
2022-08-07T13:36:53.560Z,0.50
2022-08-07T13:40:34.018Z,2.03
2022-08-07T13:42:29.201Z,1.00
2022-08-07T13:46:11.999Z,2.00
2022-08-07T13:48:08.698Z,0.90
2022-08-07T13:51:00.875Z,0.70
2022-08-07T13:53:59.542Z,0.80
2022-08-07T13:56:52.126Z,0.80
2022-08-07T13:59:34.576Z,0.73
2022-08-07T14:02:29.609Z,2.00
2022-08-07T14:05:21.930Z,1.00
2022-08-07T14:08:01.472Z,0.70
2022-08-07T14:11:01.827Z,1.00
2022-08-07T14:13:55.540Z,0.50
2022-08-07T14:16:44.941Z,0.80
2022-08-07T14:20:43.567Z,0.83
2022-08-07T14:22:34.616Z,1.03
2022-08-07T14:25:17.729Z,0.63
2022-08-07T14:28:11.911Z,0.80
2022-08-07T14:30:56.738Z,0.77
2022-08-07T14:33:45.315Z,1.13
2022-08-07T14:36:33.669Z,0.67
2022-08-07T14:40:14.510Z,0.83
2022-08-07T14:42:32.472Z,1.00
2022-08-07T14:45:21.135Z,1.23
2022-08-07T14:48:03.945Z,0.90
2022-08-07T14:50:54.230Z,0.50
2022-08-07T14:54:03.802Z,1.57
2022-08-07T14:56:30.827Z,1.03
2022-08-07T14:59:14.107Z,1.97
2022-08-07T15:02:31.739Z,1.50
2022-08-07T15:05:20.586Z,1.03
2022-08-07T15:08:08.894Z,0.70
2022-08-07T15:10:58.934Z,1.47
2022-08-07T15:13:48.693Z,0.90
2022-08-07T15:16:35.811Z,0.80
2022-08-07T15:19:17.230Z,1.43
2022-08-07T15:22:04.397Z,1.13
2022-08-07T15:25:14.955Z,0.73
2022-08-07T15:27:38.887Z,1.17
2022-08-07T15:30:28.526Z,1.47
2022-08-07T15:33:05.527Z,1.10
2022-08-07T15:38:51.432Z,0.90
2022-08-07T15:42:44.981Z,1.33
2022-08-07T15:44:23.689Z,2.27
2022-08-07T15:47:03.328Z,1.07
2022-08-07T15:50:05.788Z,1.73
2022-08-07T15:52:31.459Z,0.83
2022-08-07T15:55:08.845Z,1.57
2022-08-07T15:57:48.779Z,1.40
2022-08-07T16:00:32.157Z,2.13
2022-08-07T16:03:05.468Z,1.47
2022-08-07T16:05:36.129Z,2.17
2022-08-07T16:08:30.536Z,1.67
2022-08-07T16:11:02.750Z,1.30
2022-08-07T16:13:58.884Z,1.40
2022-08-07T16:17:15.220Z,1.50
2022-08-07T16:20:33.858Z,1.60
2022-08-07T16:23:52.970Z,2.57
2022-08-07T16:26:16.732Z,1.23
2022-08-07T16:30:06.768Z,1.37
2022-08-07T16:32:05.110Z,2.20
2022-08-07T16:34:48.943Z,1.93
2022-08-07T16:38:04.748Z,1.47
2022-08-07T16:41:01.793Z,1.47
2022-08-07T16:44:03.787Z,1.90
2022-08-07T16:47:16.366Z,1.47
2022-08-07T16:50:39.112Z,1.53
2022-08-07T16:54:01.674Z,1.13
2022-08-07T16:56:39.330Z,1.40
2022-08-07T16:59:17.490Z,1.53
2022-08-07T17:02:02.879Z,1.07
2022-08-07T17:04:57.687Z,1.27
2022-08-07T17:07:55.729Z,0.73
2022-08-07T17:10:35.732Z,0.80
2022-08-07T17:13:41.379Z,1.00
2022-08-07T17:16:25.052Z,0.70
2022-08-07T17:19:04.583Z,0.70
2022-08-07T17:21:50.735Z,2.63
2022-08-07T17:24:32.007Z,1.80
2022-08-07T17:27:08.406Z,0.70
2022-08-07T17:30:15.231Z,1.47
2022-08-07T17:32:57.182Z,1.07
2022-08-07T17:35:50.811Z,0.93
2022-08-07T17:38:34.085Z,2.23
2022-08-07T17:42:02.579Z,0.60
2022-08-07T17:44:06.480Z,0.80
2022-08-07T17:46:52.626Z,0.70
2022-08-07T17:49:26.513Z,1.23
2022-08-07T17:52:10.585Z,1.50
2022-08-07T17:54:53.906Z,1.03
2022-08-07T17:57:58.433Z,0.90
2022-08-07T18:00:27.483Z,1.07
2022-08-07T18:03:17.910Z,0.80
2022-08-07T18:06:01.435Z,1.23
2022-08-07T18:08:49.315Z,1.73
2022-08-07T18:12:16.351Z,0.60
2022-08-07T18:14:32.004Z,2.50
2022-08-07T18:18:47.071Z,0.70
2022-08-07T18:21:08.959Z,1.10
2022-08-07T18:23:43.829Z,0.70
2022-08-07T18:26:01.430Z,0.70
2022-08-07T18:28:58.183Z,0.67
2022-08-07T18:31:50.203Z,1.40
2022-08-07T18:34:39.394Z,1.00
2022-08-07T18:38:57.225Z,1.17
2022-08-07T18:40:42.422Z,0.60
2022-08-07T18:43:37.155Z,0.87
2022-08-07T18:46:26.842Z,2.00
2022-08-07T18:50:31.207Z,1.03
2022-08-07T18:52:34.311Z,1.50
2022-08-07T18:55:40.645Z,0.93
2022-08-07T18:58:19.385Z,1.60
2022-08-07T19:01:01.351Z,1.20
2022-08-07T19:03:36.173Z,1.23
2022-08-07T19:06:16.496Z,0.87
2022-08-07T19:08:52.163Z,1.10
2022-08-07T19:11:39.235Z,1.17
2022-08-07T19:14:51.117Z,1.73
2022-08-07T19:18:03.960Z,1.47
2022-08-07T19:20:30.246Z,1.43
2022-08-07T19:23:18.685Z,1.23
2022-08-07T19:26:22.682Z,2.23
2022-08-07T19:30:54.223Z,1.20
2022-08-07T19:32:10.514Z,0.80
2022-08-07T19:34:32.646Z,1.37
2022-08-07T19:37:10.113Z,1.30
2022-08-07T19:39:56.685Z,1.67
2022-08-07T19:42:30.243Z,1.13
2022-08-07T19:45:09.237Z,1.80
2022-08-07T19:47:43.061Z,0.90
2022-08-07T19:50:44.510Z,1.10
2022-08-07T19:54:34.445Z,0.90
2022-08-07T19:55:57.912Z,1.70
2022-08-07T19:58:32.008Z,1.30
2022-08-07T20:01:04.482Z,1.00
2022-08-07T20:03:39.116Z,1.17
2022-08-07T20:06:15.439Z,0.90
2022-08-07T20:09:01.963Z,2.70
2022-08-07T20:12:01.490Z,1.30
2022-08-07T20:14:31.313Z,2.10
2022-08-07T20:17:09.168Z,1.23
2022-08-07T20:19:49.449Z,1.33
2022-08-07T20:22:34.386Z,1.33
2022-08-07T20:25:19.377Z,1.37
2022-08-07T20:27:57.849Z,1.83
2022-08-07T20:30:32.525Z,1.17
2022-08-07T20:33:09.051Z,1.80
2022-08-07T20:36:01.457Z,1.07
2022-08-07T20:38:33.610Z,0.80
2022-08-07T20:41:05.566Z,2.50
2022-08-07T20:43:36.074Z,0.90
2022-08-07T20:46:26.563Z,2.60
2022-08-07T20:49:59.587Z,1.63
2022-08-07T20:51:51.099Z,1.53
2022-08-07T20:54:30.208Z,0.80
2022-08-07T20:57:03.310Z,1.57
2022-08-07T21:00:07.467Z,0.80
2022-08-07T21:02:54.411Z,1.40
2022-08-07T21:05:51.199Z,1.17
2022-08-07T21:08:38.314Z,1.10
2022-08-07T21:11:12.265Z,1.20
2022-08-07T21:14:16.353Z,0.70
2022-08-07T21:16:46.792Z,1.20
2022-08-07T21:19:32.192Z,1.10
2022-08-07T21:22:19.837Z,2.00
2022-08-07T21:25:12.118Z,1.50
2022-08-07T21:28:01.823Z,2.03
2022-08-07T21:30:41.788Z,2.13
2022-08-07T21:33:17.604Z,1.10
2022-08-07T21:36:04.825Z,1.30
2022-08-07T21:38:58.888Z,2.00
2022-08-07T21:41:38.170Z,1.37
2022-08-07T21:44:32.405Z,1.07
2022-08-07T21:47:27.374Z,1.63
2022-08-07T21:50:03.222Z,0.90
2022-08-07T21:52:44.966Z,1.10
2022-08-07T21:55:29.755Z,2.03
2022-08-07T21:58:32.213Z,2.13
2022-08-07T22:01:14.342Z,1.13
2022-08-07T22:03:51.112Z,1.00
2022-08-07T22:06:30.988Z,7.97
2022-08-07T22:09:07.156Z,2.20
2022-08-07T22:11:53.371Z,2.33
2022-08-07T22:14:36.888Z,1.00
2022-08-07T22:17:10.292Z,1.90
2022-08-07T22:19:43.341Z,0.90
2022-08-07T22:22:21.444Z,2.17
2022-08-07T22:25:08.177Z,1.97
2022-08-07T22:28:07.628Z,0.93
2022-08-07T22:30:37.467Z,0.80
2022-08-07T22:33:09.299Z,1.03
2022-08-07T22:35:42.726Z,3.40
2022-08-07T22:38:25.803Z,2.07
2022-08-07T22:40:59.820Z,1.60
2022-08-07T22:43:37.252Z,1.03
2022-08-07T22:47:04.468Z,1.17
2022-08-07T22:49:55.110Z,1.03
2022-08-07T22:52:56.746Z,1.00
2022-08-07T22:55:43.879Z,1.17
2022-08-07T22:58:37.854Z,1.03
2022-08-07T23:01:30.535Z,1.00
2022-08-07T23:04:45.195Z,1.03
2022-08-07T23:07:42.410Z,1.27
2022-08-07T23:10:37.819Z,1.33
2022-08-07T23:13:29.421Z,2.87
2022-08-07T23:16:10.960Z,1.33
2022-08-07T23:19:48.095Z,1.37
2022-08-07T23:22:23.556Z,1.73
2022-08-07T23:25:09.375Z,1.97
2022-08-07T23:28:20.043Z,1.67
2022-08-07T23:31:05.837Z,2.20
2022-08-07T23:34:35.851Z,3.70
2022-08-07T23:37:20.287Z,2.70
2022-08-07T23:40:07.573Z,2.63
2022-08-07T23:42:55.275Z,1.40
2022-08-07T23:46:02.481Z,3.67
2022-08-07T23:48:30.250Z,1.80
2022-08-07T23:51:03.784Z,2.10
2022-08-07T23:54:28.435Z,2.13
2022-08-07T23:57:13.411Z,3.43
